createdAt,value
2023-04-03T00:01:14.624Z,43.56
2023-04-03T00:03:42.685Z,43.64
2023-04-03T00:06:12.136Z,43.48
2023-04-03T00:08:41.194Z,43.50
2023-04-03T00:11:10.432Z,43.46
2023-04-03T00:13:39.070Z,43.53
2023-04-03T00:16:08.051Z,43.56
2023-04-03T00:18:36.617Z,43.66
2023-04-03T00:21:05.099Z,43.81
2023-04-03T00:23:34.807Z,43.66
2023-04-03T00:26:02.544Z,43.73
2023-04-03T00:28:30.108Z,43.71
2023-04-03T00:30:57.860Z,43.71
2023-04-03T00:33:25.508Z,43.79
2023-04-03T00:35:53.364Z,43.73
2023-04-03T00:38:21.329Z,43.73
2023-04-03T00:40:50.639Z,43.73
2023-04-03T00:43:25.193Z,43.79
2023-04-03T00:45:56.448Z,43.52
2023-04-03T00:48:33.775Z,43.80
2023-04-03T00:51:03.341Z,43.83
2023-04-03T00:53:42.635Z,43.72
2023-04-03T00:56:16.045Z,44.17
2023-04-03T00:59:00.698Z,43.93
2023-04-03T01:01:30.703Z,43.87
2023-04-03T01:04:01.138Z,43.77
2023-04-03T01:06:34.839Z,44.06
2023-04-03T01:09:09.677Z,44.22
2023-04-03T01:11:37.153Z,43.94
2023-04-03T01:14:06.885Z,44.10
2023-04-03T01:16:34.447Z,43.91
2023-04-03T01:19:04.158Z,44.18
2023-04-03T01:22:04.579Z,44.23
2023-04-03T01:24:39.524Z,44.31
2023-04-03T01:27:11.352Z,44.34
2023-04-03T01:29:39.525Z,44.33
2023-04-03T01:32:07.144Z,44.49
2023-04-03T01:34:34.693Z,44.50
2023-04-03T01:37:02.559Z,44.39
2023-04-03T01:39:30.258Z,44.57
2023-04-03T01:42:00.114Z,44.51
2023-04-03T01:44:32.036Z,44.55
2023-04-03T01:46:59.545Z,44.05
2023-04-03T01:49:29.316Z,44.23
2023-04-03T01:51:57.434Z,44.41
2023-04-03T01:54:25.043Z,44.46
2023-04-03T01:56:53.084Z,44.38
2023-04-03T01:59:21.830Z,44.26
2023-04-03T02:01:49.364Z,44.40
2023-04-03T02:04:17.041Z,44.61
2023-04-03T02:06:44.627Z,44.58
2023-04-03T02:09:12.174Z,44.69
2023-04-03T02:11:39.760Z,44.59
2023-04-03T02:14:07.749Z,44.67
2023-04-03T02:16:35.362Z,44.77
2023-04-03T02:19:02.955Z,44.55
2023-04-03T02:21:31.621Z,44.61
2023-04-03T02:23:59.206Z,44.70
2023-04-03T02:26:27.531Z,44.66
2023-04-03T02:28:55.100Z,44.29
2023-04-03T02:31:24.933Z,44.30
2023-04-03T02:33:53.114Z,44.24
2023-04-03T02:36:20.932Z,44.48
2023-04-03T02:38:54.568Z,44.09
2023-04-03T02:41:22.483Z,44.01
2023-04-03T02:43:52.140Z,43.93
2023-04-03T02:46:19.680Z,43.96
2023-04-03T02:48:47.279Z,43.89
2023-04-03T02:51:14.990Z,44.01
2023-04-03T02:53:42.531Z,43.56
2023-04-03T02:56:17.960Z,43.79
2023-04-03T02:58:45.922Z,43.63
2023-04-03T03:01:13.567Z,43.92
2023-04-03T03:03:41.866Z,43.66
2023-04-03T03:06:14.396Z,43.78
2023-04-03T03:08:42.643Z,43.42
2023-04-03T03:11:10.911Z,43.62
2023-04-03T03:13:39.048Z,43.33
2023-04-03T03:16:07.080Z,43.10
2023-04-03T03:18:35.232Z,43.26
2023-04-03T03:21:05.097Z,42.80
2023-04-03T03:23:34.090Z,42.95
2023-04-03T03:26:08.517Z,42.73
2023-04-03T03:28:38.281Z,42.63
2023-04-03T03:31:08.407Z,42.98
2023-04-03T03:33:38.393Z,42.75
2023-04-03T03:36:06.445Z,42.68
2023-04-03T03:38:34.094Z,42.73
2023-04-03T03:41:02.944Z,43.01
2023-04-03T03:43:32.434Z,42.89
2023-04-03T03:45:59.949Z,42.78
2023-04-03T03:48:28.656Z,42.63
2023-04-03T03:50:57.208Z,42.71
2023-04-03T03:53:29.065Z,42.62
2023-04-03T03:56:01.022Z,42.86
2023-04-03T03:58:30.970Z,42.47
2023-04-03T04:01:03.048Z,43.04
2023-04-03T04:03:31.344Z,42.96
2023-04-03T04:05:59.330Z,43.20
2023-04-03T04:08:27.059Z,43.12
2023-04-03T04:10:54.620Z,43.03
2023-04-03T04:13:22.200Z,43.07
2023-04-03T04:15:50.486Z,42.73
2023-04-03T04:18:18.916Z,42.82
2023-04-03T04:20:48.761Z,42.63
2023-04-03T04:23:19.774Z,42.56
2023-04-03T04:25:49.855Z,42.18
2023-04-03T04:28:18.613Z,42.39
2023-04-03T04:30:48.096Z,42.13
2023-04-03T04:33:17.435Z,42.19
2023-04-03T04:35:49.420Z,42.20
2023-04-03T04:38:19.126Z,42.38
2023-04-03T04:40:48.383Z,42.22
2023-04-03T04:43:16.947Z,42.50
2023-04-03T04:45:46.521Z,42.23
2023-04-03T04:48:14.233Z,42.46
2023-04-03T04:50:41.745Z,42.18
2023-04-03T04:53:09.522Z,41.66
2023-04-03T04:55:37.247Z,41.64
2023-04-03T04:58:05.204Z,41.55
2023-04-03T05:00:32.812Z,42.00
2023-04-03T05:03:00.809Z,41.79
2023-04-03T05:05:28.931Z,41.63
2023-04-03T05:07:56.650Z,42.01
2023-04-03T05:10:24.735Z,42.10
2023-04-03T05:12:52.239Z,42.08
2023-04-03T05:15:20.886Z,42.21
2023-04-03T05:17:49.045Z,42.33
2023-04-03T05:20:16.995Z,42.65
2023-04-03T05:22:46.633Z,42.85
2023-04-03T05:25:14.572Z,42.63
2023-04-03T05:27:45.168Z,42.76
2023-04-03T05:30:14.082Z,43.04
2023-04-03T05:32:43.341Z,43.08
2023-04-03T05:35:17.192Z,42.93
2023-04-03T05:37:46.984Z,42.74
2023-04-03T05:40:18.517Z,43.13
2023-04-03T05:42:48.198Z,42.87
2023-04-03T05:45:17.422Z,43.04
2023-04-03T05:47:45.671Z,42.89
2023-04-03T05:50:13.321Z,42.89
2023-04-03T05:52:45.506Z,42.89
2023-04-03T05:55:14.035Z,42.99
2023-04-03T05:57:41.662Z,43.21
2023-04-03T06:00:15.324Z,42.89
2023-04-03T06:02:44.925Z,42.97
2023-04-03T06:05:18.933Z,42.98
2023-04-03T06:07:47.496Z,42.48
2023-04-03T06:10:15.823Z,42.80
2023-04-03T06:12:43.547Z,42.38
2023-04-03T06:15:11.237Z,42.46
2023-04-03T06:17:39.029Z,42.34
2023-04-03T06:20:07.427Z,42.57
2023-04-03T06:22:36.306Z,42.68
2023-04-03T06:25:04.511Z,42.65
2023-04-03T06:27:32.028Z,42.63
2023-04-03T06:29:59.574Z,42.82
2023-04-03T06:32:27.382Z,42.64
2023-04-03T06:34:54.940Z,42.82
2023-04-03T06:37:23.937Z,42.79
2023-04-03T06:39:51.468Z,42.68
2023-04-03T06:42:19.082Z,42.97
2023-04-03T06:44:54.351Z,42.74
2023-04-03T06:47:21.874Z,42.66
2023-04-03T06:49:49.585Z,42.83
2023-04-03T06:52:17.316Z,42.84
2023-04-03T06:54:44.971Z,42.65
2023-04-03T06:57:12.480Z,43.04
2023-04-03T06:59:41.069Z,42.75
2023-04-03T07:02:13.462Z,43.31
2023-04-03T07:04:41.971Z,43.18
2023-04-03T07:07:09.580Z,42.82
2023-04-03T07:09:37.078Z,42.88
2023-04-03T07:12:04.685Z,42.64
2023-04-03T07:14:32.163Z,42.64
2023-04-03T07:16:59.616Z,42.63
2023-04-03T07:19:28.890Z,42.77
2023-04-03T07:21:56.576Z,42.72
2023-04-03T07:24:24.419Z,42.71
2023-04-03T07:26:53.717Z,42.64
2023-04-03T07:29:22.402Z,42.72
2023-04-03T07:31:50.298Z,42.48
2023-04-03T07:34:17.869Z,42.66
2023-04-03T07:36:45.425Z,42.12
2023-04-03T07:39:13.312Z,42.46
2023-04-03T07:41:40.955Z,42.55
2023-04-03T07:44:10.688Z,42.34
2023-04-03T07:46:39.256Z,42.50
2023-04-03T07:49:06.798Z,42.47
2023-04-03T07:51:34.394Z,42.52
2023-04-03T07:54:01.984Z,42.53
2023-04-03T07:56:29.870Z,42.46
2023-04-03T07:58:57.371Z,42.12
2023-04-03T08:01:24.916Z,42.25
2023-04-03T08:03:52.542Z,42.15
2023-04-03T08:06:29.408Z,42.43
2023-04-03T08:09:00.857Z,42.23
2023-04-03T08:11:28.455Z,42.89
2023-04-03T08:13:57.032Z,42.86
2023-04-03T08:16:28.780Z,42.51
2023-04-03T08:18:56.941Z,42.50
2023-04-03T08:21:24.462Z,42.77
2023-04-03T08:23:52.097Z,42.89
2023-04-03T08:26:22.539Z,43.14
2023-04-03T08:28:50.497Z,42.99
2023-04-03T08:31:20.826Z,42.65
2023-04-03T08:33:48.740Z,42.79
2023-04-03T08:36:27.554Z,42.77
2023-04-03T08:38:56.586Z,42.55
2023-04-03T08:41:35.996Z,42.77
2023-04-03T08:44:46.859Z,42.39
2023-04-03T08:48:06.637Z,42.46
2023-04-03T08:51:07.612Z,42.72
2023-04-03T08:53:45.540Z,42.15
2023-04-03T08:56:16.387Z,42.05
2023-04-03T08:59:08.102Z,41.65
2023-04-03T09:01:39.508Z,41.81
2023-04-03T09:04:15.028Z,41.82
2023-04-03T09:06:52.751Z,41.72
2023-04-03T09:09:42.738Z,41.49
2023-04-03T09:12:30.895Z,41.61
2023-04-03T09:15:31.198Z,41.42
2023-04-03T09:18:12.601Z,40.83
2023-04-03T09:21:25.925Z,41.58
2023-04-03T09:23:58.862Z,41.27
2023-04-03T09:26:37.606Z,40.95
2023-04-03T09:29:08.654Z,40.51
2023-04-03T09:31:43.474Z,41.10
2023-04-03T09:34:42.852Z,40.35
2023-04-03T09:37:10.360Z,40.34
2023-04-03T09:39:57.184Z,40.09
2023-04-03T09:42:26.422Z,39.87
2023-04-03T09:45:04.128Z,39.94
2023-04-03T09:47:34.835Z,39.89
2023-04-03T09:50:14.762Z,40.06
2023-04-03T09:52:44.838Z,39.94
2023-04-03T09:55:28.309Z,40.28
2023-04-03T09:58:05.352Z,40.67
2023-04-03T10:00:40.582Z,39.99
2023-04-03T10:03:36.700Z,40.03
2023-04-03T10:06:08.391Z,40.39
2023-04-03T10:08:36.376Z,39.84
2023-04-03T10:11:17.720Z,40.25
2023-04-03T10:13:57.544Z,39.62
2023-04-03T10:16:38.281Z,39.57
2023-04-03T10:19:24.928Z,39.31
2023-04-03T10:22:15.374Z,39.64
2023-04-03T10:24:54.850Z,39.03
2023-04-03T10:28:00.753Z,39.41
2023-04-03T10:30:53.721Z,38.96
2023-04-03T10:33:35.697Z,38.79
2023-04-03T10:36:50.151Z,39.12
2023-04-03T10:40:02.229Z,38.91
2023-04-03T10:42:55.093Z,38.96
2023-04-03T10:45:32.422Z,38.88
2023-04-03T10:48:06.781Z,39.01
2023-04-03T10:51:12.939Z,38.79
2023-04-03T10:54:07.302Z,39.22
2023-04-03T10:56:55.315Z,39.51
2023-04-03T10:59:37.641Z,39.63
2023-04-03T11:02:28.590Z,38.37
2023-04-03T11:05:16.442Z,38.40
2023-04-03T11:07:50.561Z,38.67
2023-04-03T11:10:45.907Z,38.32
2023-04-03T11:13:24.034Z,37.83
2023-04-03T11:15:54.109Z,38.06
2023-04-03T11:18:46.072Z,38.71
2023-04-03T11:21:35.619Z,37.72
2023-04-03T11:24:14.835Z,38.25
2023-04-03T11:26:43.956Z,37.69
2023-04-03T11:29:34.226Z,37.74
2023-04-03T11:32:36.710Z,37.67
2023-04-03T11:35:08.213Z,37.69
2023-04-03T11:37:40.903Z,37.46
2023-04-03T11:40:18.826Z,37.88
2023-04-03T11:42:54.038Z,37.01
2023-04-03T11:45:25.529Z,36.69
2023-04-03T11:48:10.184Z,36.96
2023-04-03T11:50:47.115Z,37.06
2023-04-03T11:53:14.453Z,37.38
2023-04-03T11:55:46.384Z,36.75
2023-04-03T11:58:34.098Z,36.76
2023-04-03T12:01:04.969Z,37.04
2023-04-03T12:04:05.761Z,37.18
2023-04-03T12:07:01.407Z,37.34
2023-04-03T12:09:56.393Z,37.07
2023-04-03T12:12:39.891Z,37.27
2023-04-03T12:15:22.335Z,36.99
2023-04-03T12:17:50.445Z,36.49
2023-04-03T12:20:53.753Z,36.40
2023-04-03T12:23:34.273Z,36.89
2023-04-03T12:26:20.343Z,36.64
2023-04-03T12:28:49.495Z,36.37
2023-04-03T12:31:18.062Z,35.83
2023-04-03T12:34:16.155Z,35.67
2023-04-03T12:37:29.265Z,35.92
2023-04-03T12:40:21.920Z,35.56
2023-04-03T12:43:45.635Z,35.90
2023-04-03T12:46:21.904Z,34.85
2023-04-03T12:48:52.829Z,34.83
2023-04-03T12:51:40.857Z,34.40
2023-04-03T12:54:17.364Z,34.66
2023-04-03T12:56:45.036Z,34.46
2023-04-03T12:59:27.679Z,34.76
2023-04-03T13:02:02.762Z,34.04
2023-04-03T13:04:32.961Z,34.76
2023-04-03T13:07:00.823Z,34.47
2023-04-03T13:09:32.066Z,35.14
2023-04-03T13:12:13.455Z,34.87
2023-04-03T13:14:41.930Z,34.95
2023-04-03T13:17:17.151Z,34.51
2023-04-03T13:19:49.372Z,34.57
2023-04-03T13:22:33.802Z,34.21
2023-04-03T13:25:07.194Z,33.74
2023-04-03T13:27:35.267Z,34.58
2023-04-03T13:30:05.172Z,34.08
2023-04-03T13:32:33.677Z,33.37
2023-04-03T13:35:15.601Z,33.24
2023-04-03T13:37:57.850Z,33.31
2023-04-03T13:40:28.087Z,33.11
2023-04-03T13:43:24.632Z,33.16
2023-04-03T13:46:13.218Z,32.78
2023-04-03T13:48:47.828Z,33.10
2023-04-03T13:51:15.932Z,32.87
2023-04-03T13:54:00.547Z,33.26
2023-04-03T13:56:33.858Z,33.25
2023-04-03T13:59:12.203Z,33.28
2023-04-03T14:01:47.208Z,32.93
2023-04-03T14:04:17.949Z,33.17
2023-04-03T14:06:46.835Z,33.05
2023-04-03T14:09:15.864Z,32.68
2023-04-03T14:11:43.963Z,32.82
2023-04-03T14:14:31.706Z,32.49
2023-04-03T14:17:03.784Z,32.43
2023-04-03T14:19:36.659Z,32.30
2023-04-03T14:22:25.888Z,31.98
2023-04-03T14:24:54.166Z,32.13
2023-04-03T14:27:28.131Z,32.15
2023-04-03T14:29:58.178Z,31.26
2023-04-03T14:32:28.229Z,32.54
2023-04-03T14:34:56.247Z,32.69
2023-04-03T14:37:28.753Z,32.63
2023-04-03T14:39:59.120Z,32.94
2023-04-03T14:42:34.347Z,32.73
2023-04-03T14:45:07.003Z,32.33
2023-04-03T14:47:46.376Z,32.39
2023-04-03T14:50:21.980Z,32.09
2023-04-03T14:52:54.533Z,32.58
2023-04-03T14:55:25.791Z,32.27
2023-04-03T14:57:54.437Z,32.02
2023-04-03T15:00:23.358Z,32.16
2023-04-03T15:02:51.181Z,31.60
2023-04-03T15:05:20.404Z,31.51
2023-04-03T15:07:59.025Z,31.62
2023-04-03T15:10:30.227Z,31.46
2023-04-03T15:12:58.310Z,32.39
2023-04-03T15:15:30.355Z,31.89
2023-04-03T15:17:58.905Z,32.39
2023-04-03T15:20:31.292Z,32.15
2023-04-03T15:23:01.605Z,32.31
2023-04-03T15:25:29.861Z,31.32
2023-04-03T15:27:58.283Z,30.88
2023-04-03T15:30:26.056Z,31.10
2023-04-03T15:32:54.145Z,31.76
2023-04-03T15:35:22.001Z,31.09
2023-04-03T15:37:49.739Z,31.28
2023-04-03T15:40:17.515Z,30.77
2023-04-03T15:42:45.046Z,30.95
2023-04-03T15:45:12.596Z,30.94
2023-04-03T15:47:40.287Z,30.98
2023-04-03T15:50:08.913Z,31.46
2023-04-03T15:52:36.895Z,31.35
2023-04-03T15:55:05.460Z,31.26
2023-04-03T16:00:08.874Z,30.60
2023-04-03T16:02:36.582Z,30.65
2023-04-03T16:05:04.487Z,30.86
2023-04-03T16:07:32.052Z,31.19
2023-04-03T16:09:59.585Z,31.14
2023-04-03T16:12:27.121Z,31.10
2023-04-03T16:14:54.680Z,31.11
2023-04-03T16:17:22.371Z,31.03
2023-04-03T16:19:50.176Z,31.42
2023-04-03T16:22:17.723Z,31.09
2023-04-03T16:24:45.257Z,30.77
2023-04-03T16:27:12.756Z,30.81
2023-04-03T16:29:40.407Z,30.37
2023-04-03T16:32:08.054Z,30.77
2023-04-03T16:34:36.009Z,30.61
2023-04-03T16:37:03.714Z,30.64
2023-04-03T16:39:31.269Z,31.02
2023-04-03T16:41:58.743Z,30.74
2023-04-03T16:44:27.071Z,31.12
2023-04-03T16:46:54.908Z,30.87
2023-04-03T16:49:22.470Z,30.96
2023-04-03T16:51:50.429Z,31.27
2023-04-03T16:54:17.951Z,31.45
2023-04-03T16:56:45.534Z,31.12
2023-04-03T16:59:13.162Z,31.32
2023-04-03T17:01:40.835Z,31.34
2023-04-03T17:04:08.397Z,31.20
2023-04-03T17:06:36.479Z,30.96
2023-04-03T17:09:03.990Z,31.08
2023-04-03T17:11:32.713Z,30.99
2023-04-03T17:14:00.540Z,31.15
2023-04-03T17:16:28.874Z,31.12
2023-04-03T17:18:57.180Z,31.35
2023-04-03T17:21:24.924Z,31.40
2023-04-03T17:23:58.646Z,31.20
2023-04-03T17:26:27.135Z,32.02
2023-04-03T17:28:54.623Z,31.71
2023-04-03T17:31:22.142Z,31.62
2023-04-03T17:33:49.810Z,31.25
2023-04-03T17:36:17.281Z,31.98
2023-04-03T17:38:44.865Z,31.91
2023-04-03T17:41:12.431Z,32.14
2023-04-03T17:43:40.015Z,31.90
2023-04-03T17:46:10.413Z,31.90
2023-04-03T17:48:40.852Z,31.71
2023-04-03T17:51:14.323Z,32.08
2023-04-03T17:53:42.552Z,31.86
2023-04-03T17:56:17.422Z,32.36
2023-04-03T17:58:45.616Z,32.44
2023-04-03T18:01:17.319Z,32.48
2023-04-03T18:03:45.928Z,32.52
2023-04-03T18:06:17.730Z,32.10
2023-04-03T18:09:01.301Z,32.17
2023-04-03T18:11:30.108Z,32.24
2023-04-03T18:14:02.404Z,32.14
2023-04-03T18:16:30.982Z,32.02
2023-04-03T18:19:17.638Z,32.22
2023-04-03T18:21:47.683Z,32.22
2023-04-03T18:24:18.910Z,32.24
2023-04-03T18:26:55.757Z,32.34
2023-04-03T18:29:23.643Z,32.17
2023-04-03T18:31:55.692Z,32.21
2023-04-03T18:34:23.427Z,32.11
2023-04-03T18:36:52.243Z,32.38
2023-04-03T18:39:19.807Z,32.35
2023-04-03T18:41:47.868Z,32.24
2023-04-03T18:44:20.961Z,32.36
2023-04-03T18:46:48.561Z,32.29
2023-04-03T18:49:18.014Z,32.18
2023-04-03T18:51:46.376Z,32.58
2023-04-03T18:54:13.892Z,32.64
2023-04-03T18:56:41.508Z,32.69
2023-04-03T18:59:09.051Z,32.67
2023-04-03T19:01:37.340Z,32.83
2023-04-03T19:04:05.093Z,32.90
2023-04-03T19:06:37.082Z,33.12
2023-04-03T19:09:06.701Z,32.88
2023-04-03T19:11:35.379Z,33.18
2023-04-03T19:14:15.197Z,33.21
2023-04-03T19:16:44.646Z,33.02
2023-04-03T19:19:12.623Z,32.86
2023-04-03T19:21:41.501Z,32.99
2023-04-03T19:24:11.757Z,33.00
2023-04-03T19:26:41.540Z,32.85
2023-04-03T19:29:10.242Z,32.57
2023-04-03T19:31:38.777Z,33.03
2023-04-03T19:34:07.550Z,32.83
2023-04-03T19:36:36.145Z,33.10
2023-04-03T19:39:05.405Z,32.84
2023-04-03T19:41:36.520Z,32.95
2023-04-03T19:44:07.061Z,33.06
2023-04-03T19:46:36.193Z,33.08
2023-04-03T19:49:04.579Z,33.08
2023-04-03T19:51:32.065Z,32.78
2023-04-03T19:53:59.626Z,33.19
2023-04-03T19:56:27.359Z,33.27
2023-04-03T19:58:54.984Z,33.16
2023-04-03T20:01:27.669Z,33.33
2023-04-03T20:03:55.336Z,33.63
2023-04-03T20:06:23.554Z,33.58
2023-04-03T20:08:51.169Z,33.82
2023-04-03T20:11:18.760Z,34.20
2023-04-03T20:13:50.331Z,33.94
2023-04-03T20:16:19.281Z,34.10
2023-04-03T20:18:47.583Z,33.52
2023-04-03T20:21:15.443Z,33.95
2023-04-03T20:23:42.930Z,34.06
2023-04-03T20:26:18.768Z,34.31
2023-04-03T20:28:46.291Z,34.12
2023-04-03T20:31:14.087Z,34.30
2023-04-03T20:33:41.873Z,34.81
2023-04-03T20:36:09.599Z,34.63
2023-04-03T20:38:37.082Z,34.90
2023-04-03T20:41:04.859Z,34.96
2023-04-03T20:43:32.428Z,34.86
2023-04-03T20:46:03.178Z,35.02
2023-04-03T20:48:32.239Z,34.83
2023-04-03T20:51:12.457Z,34.94
2023-04-03T20:53:41.113Z,34.95
2023-04-03T20:56:09.003Z,35.47
2023-04-03T20:58:39.118Z,35.17
2023-04-03T21:01:22.790Z,35.44
2023-04-03T21:03:54.911Z,35.30
2023-04-03T21:07:18.911Z,35.31
2023-04-03T21:10:42.946Z,35.83
2023-04-03T21:14:07.443Z,35.61
2023-04-03T21:16:37.249Z,35.03
2023-04-03T21:19:15.648Z,35.55
2023-04-03T21:21:46.027Z,35.32
2023-04-03T21:24:17.048Z,35.58
2023-04-03T21:26:45.266Z,35.58
2023-04-03T21:29:13.759Z,35.38
2023-04-03T21:31:52.084Z,35.20
2023-04-03T21:34:21.748Z,35.68
2023-04-03T21:36:49.942Z,35.64
2023-04-03T21:39:17.542Z,35.81
2023-04-03T21:41:45.433Z,35.12
2023-04-03T21:44:13.018Z,35.52
2023-04-03T21:46:40.551Z,36.22
2023-04-03T21:49:08.034Z,36.18
2023-04-03T21:51:36.750Z,35.92
2023-04-03T21:54:04.373Z,36.56
2023-04-03T21:56:31.964Z,36.02
2023-04-03T21:59:02.492Z,36.07
2023-04-03T22:01:30.275Z,36.57
2023-04-03T22:03:59.044Z,35.93
2023-04-03T22:06:26.589Z,36.47
2023-04-03T22:08:54.232Z,36.08
2023-04-03T22:11:24.524Z,36.51
2023-04-03T22:13:54.507Z,36.44
2023-04-03T22:16:23.281Z,36.43
2023-04-03T22:18:56.080Z,36.15
2023-04-03T22:21:23.558Z,36.73
2023-04-03T22:23:52.495Z,37.08
2023-04-03T22:26:21.450Z,36.92
2023-04-03T22:28:49.059Z,36.60
2023-04-03T22:31:17.060Z,36.10
2023-04-03T22:33:46.106Z,36.43
2023-04-03T22:36:14.344Z,36.46
2023-04-03T22:38:46.692Z,36.49
2023-04-03T22:41:14.213Z,36.73
2023-04-03T22:43:42.458Z,36.24
2023-04-03T22:46:10.140Z,36.97
2023-04-03T22:48:40.872Z,36.73
2023-04-03T22:51:08.513Z,36.21
2023-04-03T22:53:36.986Z,35.91
2023-04-03T22:56:10.885Z,36.74
2023-04-03T22:58:38.859Z,36.46
2023-04-03T23:01:07.789Z,36.11
2023-04-03T23:03:37.227Z,36.84
2023-04-03T23:06:06.151Z,36.21
2023-04-03T23:08:34.970Z,36.65
2023-04-03T23:11:02.746Z,37.01
2023-04-03T23:13:30.400Z,36.69
2023-04-03T23:16:01.422Z,37.01
2023-04-03T23:18:31.219Z,36.27
2023-04-03T23:21:03.511Z,36.70
2023-04-03T23:23:31.964Z,37.00
2023-04-03T23:26:01.558Z,36.85
2023-04-03T23:28:29.810Z,36.82
2023-04-03T23:31:02.645Z,37.23
2023-04-03T23:33:31.765Z,36.97
2023-04-03T23:36:01.119Z,37.12
2023-04-03T23:38:29.473Z,37.69
2023-04-03T23:40:57.049Z,37.80
2023-04-03T23:43:24.629Z,37.61
2023-04-03T23:45:52.482Z,37.68
2023-04-03T23:48:20.096Z,38.22
2023-04-03T23:50:47.588Z,38.17
2023-04-03T23:53:15.068Z,38.08
2023-04-03T23:55:42.759Z,37.74
2023-04-03T23:58:13.176Z,38.25
